sensor_id;sensor_type;location;lat;lon;timestamp;P1;durP1;ratioP1;P2;durP2;ratioP2
38238;SDS011;24035;48.900;9.188;2023-05-10T00:00:23;0.75;;;0.28;;
38238;SDS011;24035;48.900;9.188;2023-05-10T00:02:49;0.82;;;0.20;;
38238;SDS011;24035;48.900;9.188;2023-05-10T00:05:15;0.63;;;0.20;;
38238;SDS011;24035;48.900;9.188;2023-05-10T00:10:34;0.28;;;0.08;;
38238;SDS011;24035;48.900;9.188;2023-05-10T00:13:01;0.35;;;0.10;;
38238;SDS011;24035;48.900;9.188;2023-05-10T00:15:26;0.25;;;0.00;;
38238;SDS011;24035;48.900;9.188;2023-05-10T00:17:52;0.22;;;0.00;;
38238;SDS011;24035;48.900;9.188;2023-05-10T00:20:18;1.00;;;0.00;;
38238;SDS011;24035;48.900;9.188;2023-05-10T00:22:43;0.15;;;0.00;;
38238;SDS011;24035;48.900;9.188;2023-05-10T00:25:09;0.05;;;0.00;;
38238;SDS011;24035;48.900;9.188;2023-05-10T00:27:35;0.17;;;0.08;;
38238;SDS011;24035;48.900;9.188;2023-05-10T00:30:01;0.28;;;0.00;;
38238;SDS011;24035;48.900;9.188;2023-05-10T00:32:27;0.45;;;0.10;;
38238;SDS011;24035;48.900;9.188;2023-05-10T00:34:52;0.32;;;0.03;;
38238;SDS011;24035;48.900;9.188;2023-05-10T00:37:18;0.10;;;0.10;;
38238;SDS011;24035;48.900;9.188;2023-05-10T00:39:43;1.35;;;0.00;;
38238;SDS011;24035;48.900;9.188;2023-05-10T00:42:09;0.13;;;0.03;;
38238;SDS011;24035;48.900;9.188;2023-05-10T00:44:35;0.10;;;0.10;;
38238;SDS011;24035;48.900;9.188;2023-05-10T00:47:00;0.08;;;0.00;;
38238;SDS011;24035;48.900;9.188;2023-05-10T00:49:26;0.10;;;0.00;;
38238;SDS011;24035;48.900;9.188;2023-05-10T00:51:52;0.13;;;0.10;;
38238;SDS011;24035;48.900;9.188;2023-05-10T00:54:18;0.25;;;0.10;;
38238;SDS011;24035;48.900;9.188;2023-05-10T00:56:44;0.22;;;0.00;;
38238;SDS011;24035;48.900;9.188;2023-05-10T00:59:14;0.43;;;0.10;;
38238;SDS011;24035;48.900;9.188;2023-05-10T01:01:42;0.38;;;0.13;;
38238;SDS011;24035;48.900;9.188;2023-05-10T01:04:08;0.10;;;0.00;;
38238;SDS011;24035;48.900;9.188;2023-05-10T01:06:36;0.32;;;0.10;;
38238;SDS011;24035;48.900;9.188;2023-05-10T01:09:02;1.77;;;0.32;;
38238;SDS011;24035;48.900;9.188;2023-05-10T01:11:27;3.75;;;0.43;;
38238;SDS011;24035;48.900;9.188;2023-05-10T01:13:57;0.43;;;0.20;;
38238;SDS011;24035;48.900;9.188;2023-05-10T01:16:23;0.20;;;0.10;;
38238;SDS011;24035;48.900;9.188;2023-05-10T01:18:51;0.50;;;0.20;;
38238;SDS011;24035;48.900;9.188;2023-05-10T01:24:12;0.57;;;0.20;;
38238;SDS011;24035;48.900;9.188;2023-05-10T01:33:10;0.63;;;0.20;;
38238;SDS011;24035;48.900;9.188;2023-05-10T01:35:55;1.00;;;0.40;;
38238;SDS011;24035;48.900;9.188;2023-05-10T01:41:19;1.55;;;0.40;;
38238;SDS011;24035;48.900;9.188;2023-05-10T01:44:07;1.15;;;0.40;;
38238;SDS011;24035;48.900;9.188;2023-05-10T01:46:38;1.08;;;0.40;;
38238;SDS011;24035;48.900;9.188;2023-05-10T01:49:24;1.08;;;0.40;;
38238;SDS011;24035;48.900;9.188;2023-05-10T01:51:53;0.77;;;0.35;;
38238;SDS011;24035;48.900;9.188;2023-05-10T01:54:24;1.00;;;0.32;;
38238;SDS011;24035;48.900;9.188;2023-05-10T01:56:55;1.17;;;0.40;;
38238;SDS011;24035;48.900;9.188;2023-05-10T01:59:25;0.68;;;0.30;;
38238;SDS011;24035;48.900;9.188;2023-05-10T02:01:56;0.82;;;0.32;;
38238;SDS011;24035;48.900;9.188;2023-05-10T02:04:24;0.98;;;0.40;;
38238;SDS011;24035;48.900;9.188;2023-05-10T02:06:51;1.17;;;0.40;;
38238;SDS011;24035;48.900;9.188;2023-05-10T02:09:18;0.82;;;0.40;;
38238;SDS011;24035;48.900;9.188;2023-05-10T02:11:46;0.90;;;0.30;;
38238;SDS011;24035;48.900;9.188;2023-05-10T02:14:13;2.20;;;0.60;;
38238;SDS011;24035;48.900;9.188;2023-05-10T02:16:41;1.30;;;0.45;;
38238;SDS011;24035;48.900;9.188;2023-05-10T02:19:10;0.70;;;0.38;;
38238;SDS011;24035;48.900;9.188;2023-05-10T02:21:37;1.52;;;0.50;;
38238;SDS011;24035;48.900;9.188;2023-05-10T02:24:05;1.27;;;0.40;;
38238;SDS011;24035;48.900;9.188;2023-05-10T02:26:32;1.48;;;0.50;;
38238;SDS011;24035;48.900;9.188;2023-05-10T02:29:01;1.23;;;0.40;;
38238;SDS011;24035;48.900;9.188;2023-05-10T02:31:29;0.90;;;0.40;;
38238;SDS011;24035;48.900;9.188;2023-05-10T02:33:57;0.95;;;0.30;;
38238;SDS011;24035;48.900;9.188;2023-05-10T02:36:25;0.98;;;0.40;;
38238;SDS011;24035;48.900;9.188;2023-05-10T02:38:52;0.47;;;0.22;;
38238;SDS011;24035;48.900;9.188;2023-05-10T02:41:19;1.10;;;0.43;;
38238;SDS011;24035;48.900;9.188;2023-05-10T02:43:49;0.98;;;0.40;;
38238;SDS011;24035;48.900;9.188;2023-05-10T02:46:19;1.90;;;0.52;;
38238;SDS011;24035;48.900;9.188;2023-05-10T02:48:45;1.70;;;0.80;;
38238;SDS011;24035;48.900;9.188;2023-05-10T02:51:11;0.90;;;0.38;;
38238;SDS011;24035;48.900;9.188;2023-05-10T02:53:42;0.98;;;0.40;;
38238;SDS011;24035;48.900;9.188;2023-05-10T02:56:20;1.25;;;0.52;;
38238;SDS011;24035;48.900;9.188;2023-05-10T02:58:50;3.50;;;0.50;;
38238;SDS011;24035;48.900;9.188;2023-05-10T03:01:17;1.50;;;0.57;;
38238;SDS011;24035;48.900;9.188;2023-05-10T03:03:42;1.48;;;0.43;;
38238;SDS011;24035;48.900;9.188;2023-05-10T03:06:08;0.95;;;0.30;;
38238;SDS011;24035;48.900;9.188;2023-05-10T03:08:34;2.20;;;0.60;;
38238;SDS011;24035;48.900;9.188;2023-05-10T03:13:48;1.60;;;0.63;;
38238;SDS011;24035;48.900;9.188;2023-05-10T03:19:10;1.08;;;0.60;;
38238;SDS011;24035;48.900;9.188;2023-05-10T03:21:38;2.58;;;0.57;;
38238;SDS011;24035;48.900;9.188;2023-05-10T03:24:08;1.52;;;0.60;;
38238;SDS011;24035;48.900;9.188;2023-05-10T03:26:37;1.92;;;0.70;;
38238;SDS011;24035;48.900;9.188;2023-05-10T03:29:05;2.08;;;0.70;;
38238;SDS011;24035;48.900;9.188;2023-05-10T03:31:32;1.73;;;0.63;;
38238;SDS011;24035;48.900;9.188;2023-05-10T03:33:58;1.77;;;0.70;;
38238;SDS011;24035;48.900;9.188;2023-05-10T03:36:24;3.88;;;0.60;;
38238;SDS011;24035;48.900;9.188;2023-05-10T03:38:50;2.55;;;0.60;;
38238;SDS011;24035;48.900;9.188;2023-05-10T03:41:16;1.65;;;0.70;;
38238;SDS011;24035;48.900;9.188;2023-05-10T03:43:41;2.22;;;0.68;;
38238;SDS011;24035;48.900;9.188;2023-05-10T03:46:07;1.80;;;0.70;;
38238;SDS011;24035;48.900;9.188;2023-05-10T03:48:33;2.00;;;0.77;;
38238;SDS011;24035;48.900;9.188;2023-05-10T03:50:58;3.13;;;1.00;;
38238;SDS011;24035;48.900;9.188;2023-05-10T03:53:24;1.92;;;0.82;;
38238;SDS011;24035;48.900;9.188;2023-05-10T03:55:50;2.33;;;0.90;;
38238;SDS011;24035;48.900;9.188;2023-05-10T03:58:16;4.40;;;0.88;;
38238;SDS011;24035;48.900;9.188;2023-05-10T04:00:42;2.00;;;0.90;;
38238;SDS011;24035;48.900;9.188;2023-05-10T04:03:10;3.17;;;1.00;;
38238;SDS011;24035;48.900;9.188;2023-05-10T04:05:36;2.38;;;0.95;;
38238;SDS011;24035;48.900;9.188;2023-05-10T04:08:02;2.35;;;1.00;;
38238;SDS011;24035;48.900;9.188;2023-05-10T04:10:29;2.03;;;0.90;;
38238;SDS011;24035;48.900;9.188;2023-05-10T04:12:55;1.13;;;0.63;;
38238;SDS011;24035;48.900;9.188;2023-05-10T04:15:20;1.40;;;0.68;;
38238;SDS011;24035;48.900;9.188;2023-05-10T04:17:46;3.20;;;0.95;;
38238;SDS011;24035;48.900;9.188;2023-05-10T04:20:12;4.00;;;1.00;;
38238;SDS011;24035;48.900;9.188;2023-05-10T04:22:38;3.17;;;0.93;;
38238;SDS011;24035;48.900;9.188;2023-05-10T04:25:04;2.35;;;0.80;;
38238;SDS011;24035;48.900;9.188;2023-05-10T04:27:30;3.38;;;0.90;;
38238;SDS011;24035;48.900;9.188;2023-05-10T04:29:56;2.33;;;0.90;;
38238;SDS011;24035;48.900;9.188;2023-05-10T04:32:22;1.58;;;0.75;;
38238;SDS011;24035;48.900;9.188;2023-05-10T04:34:47;1.50;;;0.70;;
38238;SDS011;24035;48.900;9.188;2023-05-10T04:37:13;2.03;;;0.82;;
38238;SDS011;24035;48.900;9.188;2023-05-10T04:39:39;1.85;;;0.70;;
38238;SDS011;24035;48.900;9.188;2023-05-10T04:42:04;1.83;;;0.80;;
38238;SDS011;24035;48.900;9.188;2023-05-10T04:44:31;2.22;;;0.90;;
38238;SDS011;24035;48.900;9.188;2023-05-10T04:46:57;1.52;;;0.68;;
38238;SDS011;24035;48.900;9.188;2023-05-10T04:49:22;1.92;;;0.80;;
38238;SDS011;24035;48.900;9.188;2023-05-10T04:51:48;3.53;;;0.80;;
38238;SDS011;24035;48.900;9.188;2023-05-10T04:54:14;1.83;;;0.68;;
38238;SDS011;24035;48.900;9.188;2023-05-10T04:56:40;1.77;;;0.68;;
38238;SDS011;24035;48.900;9.188;2023-05-10T04:59:06;1.85;;;0.63;;
38238;SDS011;24035;48.900;9.188;2023-05-10T05:01:31;1.75;;;0.70;;
38238;SDS011;24035;48.900;9.188;2023-05-10T05:03:57;1.95;;;0.60;;
38238;SDS011;24035;48.900;9.188;2023-05-10T05:06:24;1.95;;;0.70;;
38238;SDS011;24035;48.900;9.188;2023-05-10T05:08:50;2.03;;;0.70;;
38238;SDS011;24035;48.900;9.188;2023-05-10T05:11:16;2.90;;;0.70;;
38238;SDS011;24035;48.900;9.188;2023-05-10T05:13:42;2.03;;;0.80;;
38238;SDS011;24035;48.900;9.188;2023-05-10T05:16:08;1.75;;;0.75;;
38238;SDS011;24035;48.900;9.188;2023-05-10T05:18:35;3.65;;;0.90;;
38238;SDS011;24035;48.900;9.188;2023-05-10T05:21:00;2.67;;;1.10;;
38238;SDS011;24035;48.900;9.188;2023-05-10T05:23:26;3.03;;;1.05;;
38238;SDS011;24035;48.900;9.188;2023-05-10T05:25:52;2.03;;;0.85;;
38238;SDS011;24035;48.900;9.188;2023-05-10T05:28:21;7.05;;;1.58;;
38238;SDS011;24035;48.900;9.188;2023-05-10T05:30:47;2.25;;;0.77;;
38238;SDS011;24035;48.900;9.188;2023-05-10T05:33:13;2.35;;;0.93;;
38238;SDS011;24035;48.900;9.188;2023-05-10T05:35:40;2.38;;;1.00;;
38238;SDS011;24035;48.900;9.188;2023-05-10T05:38:08;1.88;;;0.70;;
38238;SDS011;24035;48.900;9.188;2023-05-10T05:40:33;2.22;;;0.80;;
38238;SDS011;24035;48.900;9.188;2023-05-10T05:42:59;2.50;;;0.75;;
38238;SDS011;24035;48.900;9.188;2023-05-10T05:45:25;2.80;;;0.90;;
38238;SDS011;24035;48.900;9.188;2023-05-10T05:47:50;1.95;;;0.77;;
38238;SDS011;24035;48.900;9.188;2023-05-10T05:50:16;2.00;;;0.70;;
38238;SDS011;24035;48.900;9.188;2023-05-10T05:52:42;3.03;;;0.90;;
38238;SDS011;24035;48.900;9.188;2023-05-10T05:55:08;1.95;;;0.75;;
38238;SDS011;24035;48.900;9.188;2023-05-10T05:57:33;4.05;;;1.30;;
38238;SDS011;24035;48.900;9.188;2023-05-10T05:59:59;2.35;;;0.90;;
38238;SDS011;24035;48.900;9.188;2023-05-10T06:02:25;2.30;;;0.80;;
38238;SDS011;24035;48.900;9.188;2023-05-10T06:04:50;3.33;;;0.80;;
38238;SDS011;24035;48.900;9.188;2023-05-10T06:07:16;2.03;;;0.80;;
38238;SDS011;24035;48.900;9.188;2023-05-10T06:09:42;4.32;;;1.00;;
38238;SDS011;24035;48.900;9.188;2023-05-10T06:12:07;2.05;;;0.70;;
38238;SDS011;24035;48.900;9.188;2023-05-10T06:14:33;1.85;;;0.77;;
38238;SDS011;24035;48.900;9.188;2023-05-10T06:16:59;2.58;;;1.10;;
38238;SDS011;24035;48.900;9.188;2023-05-10T06:19:25;2.67;;;0.90;;
38238;SDS011;24035;48.900;9.188;2023-05-10T06:21:51;2.60;;;1.00;;
38238;SDS011;24035;48.900;9.188;2023-05-10T06:24:17;2.13;;;0.70;;
38238;SDS011;24035;48.900;9.188;2023-05-10T06:26:42;3.15;;;0.80;;
38238;SDS011;24035;48.900;9.188;2023-05-10T06:29:08;3.88;;;1.60;;
38238;SDS011;24035;48.900;9.188;2023-05-10T06:31:34;3.80;;;1.10;;
38238;SDS011;24035;48.900;9.188;2023-05-10T06:33:59;2.35;;;0.85;;
38238;SDS011;24035;48.900;9.188;2023-05-10T06:36:25;2.15;;;0.90;;
38238;SDS011;24035;48.900;9.188;2023-05-10T06:38:52;2.60;;;0.93;;
38238;SDS011;24035;48.900;9.188;2023-05-10T06:41:17;3.22;;;0.90;;
38238;SDS011;24035;48.900;9.188;2023-05-10T06:43:43;3.88;;;1.00;;
38238;SDS011;24035;48.900;9.188;2023-05-10T06:46:09;3.88;;;0.80;;
38238;SDS011;24035;48.900;9.188;2023-05-10T06:48:34;2.65;;;0.80;;
38238;SDS011;24035;48.900;9.188;2023-05-10T06:51:00;2.80;;;1.02;;
38238;SDS011;24035;48.900;9.188;2023-05-10T06:53:26;1.90;;;0.70;;
38238;SDS011;24035;48.900;9.188;2023-05-10T06:55:52;2.45;;;0.70;;
38238;SDS011;24035;48.900;9.188;2023-05-10T06:58:17;5.57;;;0.80;;
38238;SDS011;24035;48.900;9.188;2023-05-10T07:00:43;1.67;;;0.70;;
38238;SDS011;24035;48.900;9.188;2023-05-10T07:03:10;1.90;;;0.70;;
38238;SDS011;24035;48.900;9.188;2023-05-10T07:05:36;2.20;;;0.60;;
38238;SDS011;24035;48.900;9.188;2023-05-10T07:08:01;2.40;;;0.60;;
38238;SDS011;24035;48.900;9.188;2023-05-10T07:10:27;8.52;;;0.70;;
38238;SDS011;24035;48.900;9.188;2023-05-10T07:12:53;1.30;;;0.60;;
38238;SDS011;24035;48.900;9.188;2023-05-10T07:15:19;0.90;;;0.43;;
38238;SDS011;24035;48.900;9.188;2023-05-10T07:17:44;2.30;;;0.50;;
38238;SDS011;24035;48.900;9.188;2023-05-10T07:20:10;1.45;;;0.57;;
38238;SDS011;24035;48.900;9.188;2023-05-10T07:22:36;2.30;;;0.77;;
38238;SDS011;24035;48.900;9.188;2023-05-10T07:25:02;2.45;;;0.50;;
38238;SDS011;24035;48.900;9.188;2023-05-10T07:27:28;2.05;;;0.70;;
38238;SDS011;24035;48.900;9.188;2023-05-10T07:29:53;2.50;;;1.25;;
38238;SDS011;24035;48.900;9.188;2023-05-10T07:32:20;1.58;;;0.45;;
38238;SDS011;24035;48.900;9.188;2023-05-10T07:34:46;2.78;;;0.50;;
38238;SDS011;24035;48.900;9.188;2023-05-10T07:37:11;2.05;;;0.65;;
38238;SDS011;24035;48.900;9.188;2023-05-10T07:39:37;1.48;;;0.47;;
38238;SDS011;24035;48.900;9.188;2023-05-10T07:42:03;5.30;;;0.77;;
38238;SDS011;24035;48.900;9.188;2023-05-10T07:44:28;2.63;;;0.80;;
38238;SDS011;24035;48.900;9.188;2023-05-10T07:46:54;0.90;;;0.38;;
38238;SDS011;24035;48.900;9.188;2023-05-10T07:49:20;1.42;;;0.50;;
38238;SDS011;24035;48.900;9.188;2023-05-10T07:51:49;1.23;;;0.57;;
38238;SDS011;24035;48.900;9.188;2023-05-10T07:54:15;2.13;;;0.30;;
38238;SDS011;24035;48.900;9.188;2023-05-10T07:56:40;1.25;;;0.50;;
38238;SDS011;24035;48.900;9.188;2023-05-10T07:59:14;0.77;;;0.40;;
38238;SDS011;24035;48.900;9.188;2023-05-10T08:01:40;3.45;;;0.50;;
38238;SDS011;24035;48.900;9.188;2023-05-10T08:04:06;1.60;;;0.50;;
38238;SDS011;24035;48.900;9.188;2023-05-10T08:06:32;0.57;;;0.20;;
38238;SDS011;24035;48.900;9.188;2023-05-10T08:08:58;0.52;;;0.20;;
38238;SDS011;24035;48.900;9.188;2023-05-10T08:11:23;1.48;;;0.40;;
38238;SDS011;24035;48.900;9.188;2023-05-10T08:13:50;1.30;;;0.35;;
38238;SDS011;24035;48.900;9.188;2023-05-10T08:16:16;0.22;;;0.10;;
38238;SDS011;24035;48.900;9.188;2023-05-10T08:18:42;0.88;;;0.15;;
38238;SDS011;24035;48.900;9.188;2023-05-10T08:21:09;0.47;;;0.10;;
38238;SDS011;24035;48.900;9.188;2023-05-10T08:23:36;0.70;;;0.20;;
38238;SDS011;24035;48.900;9.188;2023-05-10T08:26:02;0.68;;;0.28;;
38238;SDS011;24035;48.900;9.188;2023-05-10T08:28:28;1.33;;;0.32;;
38238;SDS011;24035;48.900;9.188;2023-05-10T08:30:53;0.73;;;0.20;;
38238;SDS011;24035;48.900;9.188;2023-05-10T08:33:19;0.32;;;0.10;;
38238;SDS011;24035;48.900;9.188;2023-05-10T08:35:45;0.77;;;0.30;;
38238;SDS011;24035;48.900;9.188;2023-05-10T08:38:10;0.68;;;0.20;;
38238;SDS011;24035;48.900;9.188;2023-05-10T08:40:37;1.15;;;0.30;;
38238;SDS011;24035;48.900;9.188;2023-05-10T08:43:06;1.02;;;0.60;;
38238;SDS011;24035;48.900;9.188;2023-05-10T08:45:39;1.33;;;0.40;;
38238;SDS011;24035;48.900;9.188;2023-05-10T08:48:06;0.70;;;0.30;;
38238;SDS011;24035;48.900;9.188;2023-05-10T08:50:37;0.50;;;0.10;;
38238;SDS011;24035;48.900;9.188;2023-05-10T08:53:08;0.95;;;0.22;;
38238;SDS011;24035;48.900;9.188;2023-05-10T08:55:36;0.98;;;0.25;;
38238;SDS011;24035;48.900;9.188;2023-05-10T08:58:03;0.68;;;0.20;;
38238;SDS011;24035;48.900;9.188;2023-05-10T09:00:29;0.20;;;0.15;;
38238;SDS011;24035;48.900;9.188;2023-05-10T09:02:57;0.20;;;0.10;;
38238;SDS011;24035;48.900;9.188;2023-05-10T09:05:23;0.75;;;0.20;;
38238;SDS011;24035;48.900;9.188;2023-05-10T09:07:48;0.73;;;0.20;;
38238;SDS011;24035;48.900;9.188;2023-05-10T09:10:14;0.57;;;0.30;;
38238;SDS011;24035;48.900;9.188;2023-05-10T09:12:40;0.43;;;0.10;;
38238;SDS011;24035;48.900;9.188;2023-05-10T09:15:06;0.47;;;0.20;;
38238;SDS011;24035;48.900;9.188;2023-05-10T09:17:34;0.38;;;0.20;;
38238;SDS011;24035;48.900;9.188;2023-05-10T09:20:00;0.47;;;0.30;;
38238;SDS011;24035;48.900;9.188;2023-05-10T09:22:27;0.52;;;0.20;;
38238;SDS011;24035;48.900;9.188;2023-05-10T09:25:09;0.40;;;0.17;;
38238;SDS011;24035;48.900;9.188;2023-05-10T09:27:37;0.45;;;0.22;;
38238;SDS011;24035;48.900;9.188;2023-05-10T09:30:04;0.50;;;0.20;;
38238;SDS011;24035;48.900;9.188;2023-05-10T09:35:09;1.00;;;0.30;;
38238;SDS011;24035;48.900;9.188;2023-05-10T09:37:44;3.00;;;0.15;;
38238;SDS011;24035;48.900;9.188;2023-05-10T09:40:15;0.57;;;0.20;;
38238;SDS011;24035;48.900;9.188;2023-05-10T09:45:27;1.20;;;0.30;;
38238;SDS011;24035;48.900;9.188;2023-05-10T09:47:57;0.30;;;0.10;;
38238;SDS011;24035;48.900;9.188;2023-05-10T09:50:24;1.15;;;0.28;;
38238;SDS011;24035;48.900;9.188;2023-05-10T09:52:51;2.08;;;0.20;;
38238;SDS011;24035;48.900;9.188;2023-05-10T09:55:24;1.17;;;0.30;;
38238;SDS011;24035;48.900;9.188;2023-05-10T09:58:02;0.05;;;0.05;;
38238;SDS011;24035;48.900;9.188;2023-05-10T10:00:34;3.10;;;0.30;;
38238;SDS011;24035;48.900;9.188;2023-05-10T10:03:04;0.22;;;0.20;;
38238;SDS011;24035;48.900;9.188;2023-05-10T10:05:31;0.98;;;0.30;;
38238;SDS011;24035;48.900;9.188;2023-05-10T10:07:58;1.02;;;0.20;;
38238;SDS011;24035;48.900;9.188;2023-05-10T10:10:25;0.40;;;0.20;;
38238;SDS011;24035;48.900;9.188;2023-05-10T10:12:51;3.42;;;0.50;;
38238;SDS011;24035;48.900;9.188;2023-05-10T10:15:17;0.45;;;0.25;;
38238;SDS011;24035;48.900;9.188;2023-05-10T10:17:43;0.80;;;0.40;;
38238;SDS011;24035;48.900;9.188;2023-05-10T10:20:10;0.45;;;0.20;;
38238;SDS011;24035;48.900;9.188;2023-05-10T10:22:36;0.80;;;0.20;;
38238;SDS011;24035;48.900;9.188;2023-05-10T10:25:03;2.53;;;0.30;;
38238;SDS011;24035;48.900;9.188;2023-05-10T10:27:44;0.65;;;0.20;;
38238;SDS011;24035;48.900;9.188;2023-05-10T10:34:05;0.98;;;0.20;;
38238;SDS011;24035;48.900;9.188;2023-05-10T10:36:01;0.47;;;0.20;;
38238;SDS011;24035;48.900;9.188;2023-05-10T10:41:31;0.20;;;0.10;;
38238;SDS011;24035;48.900;9.188;2023-05-10T10:54:40;3.30;;;0.28;;
38238;SDS011;24035;48.900;9.188;2023-05-10T10:57:10;0.93;;;0.30;;
38238;SDS011;24035;48.900;9.188;2023-05-10T10:59:41;0.30;;;0.10;;
38238;SDS011;24035;48.900;9.188;2023-05-10T11:02:08;0.52;;;0.20;;
38238;SDS011;24035;48.900;9.188;2023-05-10T11:04:41;2.42;;;0.30;;
38238;SDS011;24035;48.900;9.188;2023-05-10T11:07:17;1.95;;;0.52;;
38238;SDS011;24035;48.900;9.188;2023-05-10T11:09:45;1.17;;;0.30;;
38238;SDS011;24035;48.900;9.188;2023-05-10T11:12:12;0.75;;;0.10;;
38238;SDS011;24035;48.900;9.188;2023-05-10T11:14:38;3.08;;;0.35;;
38238;SDS011;24035;48.900;9.188;2023-05-10T11:17:21;0.70;;;0.30;;
38238;SDS011;24035;48.900;9.188;2023-05-10T11:22:49;1.35;;;0.55;;
38238;SDS011;24035;48.900;9.188;2023-05-10T11:25:16;0.90;;;0.38;;
38238;SDS011;24035;48.900;9.188;2023-05-10T11:27:43;1.45;;;0.30;;
38238;SDS011;24035;48.900;9.188;2023-05-10T11:30:09;1.65;;;0.50;;
38238;SDS011;24035;48.900;9.188;2023-05-10T11:32:40;0.32;;;0.20;;
38238;SDS011;24035;48.900;9.188;2023-05-10T11:35:09;0.95;;;0.22;;
38238;SDS011;24035;48.900;9.188;2023-05-10T11:37:36;1.35;;;0.20;;
38238;SDS011;24035;48.900;9.188;2023-05-10T11:40:24;1.05;;;0.38;;
38238;SDS011;24035;48.900;9.188;2023-05-10T11:42:50;1.77;;;0.35;;
38238;SDS011;24035;48.900;9.188;2023-05-10T11:45:16;1.30;;;0.40;;
38238;SDS011;24035;48.900;9.188;2023-05-10T11:47:44;1.50;;;0.45;;
38238;SDS011;24035;48.900;9.188;2023-05-10T11:50:10;0.73;;;0.20;;
38238;SDS011;24035;48.900;9.188;2023-05-10T11:52:36;1.98;;;0.55;;
38238;SDS011;24035;48.900;9.188;2023-05-10T11:55:02;1.48;;;0.40;;
38238;SDS011;24035;48.900;9.188;2023-05-10T11:57:28;3.45;;;0.55;;
38238;SDS011;24035;48.900;9.188;2023-05-10T11:59:58;1.58;;;0.50;;
38238;SDS011;24035;48.900;9.188;2023-05-10T12:02:24;3.33;;;0.40;;
38238;SDS011;24035;48.900;9.188;2023-05-10T12:04:50;1.70;;;0.40;;
38238;SDS011;24035;48.900;9.188;2023-05-10T12:07:16;4.32;;;0.57;;
38238;SDS011;24035;48.900;9.188;2023-05-10T12:10:01;1.05;;;0.47;;
38238;SDS011;24035;48.900;9.188;2023-05-10T12:12:37;0.95;;;0.38;;
38238;SDS011;24035;48.900;9.188;2023-05-10T12:15:05;2.47;;;0.50;;
38238;SDS011;24035;48.900;9.188;2023-05-10T12:17:36;2.67;;;0.70;;
38238;SDS011;24035;48.900;9.188;2023-05-10T12:20:16;2.08;;;0.52;;
38238;SDS011;24035;48.900;9.188;2023-05-10T12:22:46;2.42;;;0.90;;
38238;SDS011;24035;48.900;9.188;2023-05-10T12:25:12;2.38;;;0.70;;
38238;SDS011;24035;48.900;9.188;2023-05-10T12:27:38;2.30;;;0.40;;
38238;SDS011;24035;48.900;9.188;2023-05-10T12:30:04;1.65;;;0.40;;
38238;SDS011;24035;48.900;9.188;2023-05-10T12:32:39;0.93;;;0.45;;
38238;SDS011;24035;48.900;9.188;2023-05-10T12:35:06;1.08;;;0.30;;
38238;SDS011;24035;48.900;9.188;2023-05-10T12:37:33;1.38;;;0.52;;
38238;SDS011;24035;48.900;9.188;2023-05-10T12:40:03;2.33;;;0.30;;
38238;SDS011;24035;48.900;9.188;2023-05-10T12:42:33;0.57;;;0.20;;
38238;SDS011;24035;48.900;9.188;2023-05-10T12:45:00;0.85;;;0.22;;
38238;SDS011;24035;48.900;9.188;2023-05-10T12:47:27;1.40;;;0.38;;
38238;SDS011;24035;48.900;9.188;2023-05-10T12:49:53;1.52;;;0.30;;
38238;SDS011;24035;48.900;9.188;2023-05-10T12:52:19;0.50;;;0.20;;
38238;SDS011;24035;48.900;9.188;2023-05-10T12:54:45;1.55;;;0.43;;
38238;SDS011;24035;48.900;9.188;2023-05-10T12:57:12;0.55;;;0.20;;
38238;SDS011;24035;48.900;9.188;2023-05-10T12:59:38;0.52;;;0.30;;
38238;SDS011;24035;48.900;9.188;2023-05-10T13:02:03;0.60;;;0.20;;
38238;SDS011;24035;48.900;9.188;2023-05-10T13:04:29;0.28;;;0.10;;
38238;SDS011;24035;48.900;9.188;2023-05-10T13:06:55;2.58;;;0.50;;
38238;SDS011;24035;48.900;9.188;2023-05-10T13:09:27;1.40;;;0.32;;
38238;SDS011;24035;48.900;9.188;2023-05-10T13:11:56;2.75;;;0.35;;
38238;SDS011;24035;48.900;9.188;2023-05-10T13:14:22;1.00;;;0.30;;
38238;SDS011;24035;48.900;9.188;2023-05-10T13:16:47;1.38;;;0.40;;
38238;SDS011;24035;48.900;9.188;2023-05-10T13:19:13;3.42;;;0.30;;
38238;SDS011;24035;48.900;9.188;2023-05-10T13:21:39;1.23;;;0.40;;
38238;SDS011;24035;48.900;9.188;2023-05-10T13:24:09;1.35;;;0.32;;
38238;SDS011;24035;48.900;9.188;2023-05-10T13:26:35;0.90;;;0.22;;
38238;SDS011;24035;48.900;9.188;2023-05-10T13:29:02;0.40;;;0.20;;
38238;SDS011;24035;48.900;9.188;2023-05-10T13:31:28;1.42;;;0.38;;
38238;SDS011;24035;48.900;9.188;2023-05-10T13:33:55;0.63;;;0.20;;
38238;SDS011;24035;48.900;9.188;2023-05-10T13:36:21;1.23;;;0.30;;
38238;SDS011;24035;48.900;9.188;2023-05-10T13:38:47;1.10;;;0.30;;
38238;SDS011;24035;48.900;9.188;2023-05-10T13:41:13;2.72;;;1.02;;
38238;SDS011;24035;48.900;9.188;2023-05-10T13:43:39;1.48;;;0.40;;
38238;SDS011;24035;48.900;9.188;2023-05-10T13:46:05;1.35;;;0.40;;
38238;SDS011;24035;48.900;9.188;2023-05-10T13:48:30;1.65;;;0.57;;
38238;SDS011;24035;48.900;9.188;2023-05-10T13:50:56;1.15;;;0.32;;
38238;SDS011;24035;48.900;9.188;2023-05-10T13:53:22;1.50;;;0.40;;
38238;SDS011;24035;48.900;9.188;2023-05-10T13:55:48;0.60;;;0.20;;
38238;SDS011;24035;48.900;9.188;2023-05-10T13:58:14;0.80;;;0.30;;
38238;SDS011;24035;48.900;9.188;2023-05-10T14:00:39;0.80;;;0.30;;
38238;SDS011;24035;48.900;9.188;2023-05-10T14:03:05;1.95;;;0.20;;
38238;SDS011;24035;48.900;9.188;2023-05-10T14:05:34;1.30;;;0.30;;
38238;SDS011;24035;48.900;9.188;2023-05-10T14:08:08;2.40;;;0.30;;
38238;SDS011;24035;48.900;9.188;2023-05-10T14:10:35;0.70;;;0.20;;
38238;SDS011;24035;48.900;9.188;2023-05-10T14:13:01;2.90;;;0.40;;
38238;SDS011;24035;48.900;9.188;2023-05-10T14:15:28;2.33;;;0.30;;
38238;SDS011;24035;48.900;9.188;2023-05-10T14:17:53;1.15;;;0.38;;
38238;SDS011;24035;48.900;9.188;2023-05-10T14:20:19;1.23;;;0.30;;
38238;SDS011;24035;48.900;9.188;2023-05-10T14:22:45;2.60;;;0.40;;
38238;SDS011;24035;48.900;9.188;2023-05-10T14:25:11;1.05;;;0.30;;
38238;SDS011;24035;48.900;9.188;2023-05-10T14:27:37;1.52;;;0.50;;
38238;SDS011;24035;48.900;9.188;2023-05-10T14:30:03;2.72;;;0.50;;
38238;SDS011;24035;48.900;9.188;2023-05-10T14:32:29;1.05;;;0.30;;
38238;SDS011;24035;48.900;9.188;2023-05-10T14:34:56;1.13;;;0.30;;
38238;SDS011;24035;48.900;9.188;2023-05-10T14:37:22;1.98;;;0.43;;
38238;SDS011;24035;48.900;9.188;2023-05-10T14:39:48;3.70;;;0.40;;
38238;SDS011;24035;48.900;9.188;2023-05-10T14:42:14;1.30;;;0.35;;
38238;SDS011;24035;48.900;9.188;2023-05-10T14:44:39;1.45;;;0.60;;
38238;SDS011;24035;48.900;9.188;2023-05-10T14:47:05;0.60;;;0.20;;
38238;SDS011;24035;48.900;9.188;2023-05-10T14:49:31;3.80;;;0.50;;
38238;SDS011;24035;48.900;9.188;2023-05-10T14:51:56;1.63;;;0.60;;
38238;SDS011;24035;48.900;9.188;2023-05-10T14:54:22;1.02;;;0.30;;
38238;SDS011;24035;48.900;9.188;2023-05-10T14:56:48;1.20;;;0.50;;
38238;SDS011;24035;48.900;9.188;2023-05-10T14:59:14;0.88;;;0.43;;
38238;SDS011;24035;48.900;9.188;2023-05-10T15:01:40;1.20;;;0.30;;
38238;SDS011;24035;48.900;9.188;2023-05-10T15:04:07;1.60;;;0.40;;
38238;SDS011;24035;48.900;9.188;2023-05-10T15:06:33;0.98;;;0.20;;
38238;SDS011;24035;48.900;9.188;2023-05-10T15:09:00;0.57;;;0.20;;
38238;SDS011;24035;48.900;9.188;2023-05-10T15:11:27;1.00;;;0.32;;
38238;SDS011;24035;48.900;9.188;2023-05-10T15:13:53;0.50;;;0.20;;
38238;SDS011;24035;48.900;9.188;2023-05-10T15:16:19;0.82;;;0.40;;
38238;SDS011;24035;48.900;9.188;2023-05-10T15:18:44;1.45;;;0.32;;
38238;SDS011;24035;48.900;9.188;2023-05-10T15:21:11;1.55;;;0.70;;
38238;SDS011;24035;48.900;9.188;2023-05-10T15:23:37;2.42;;;0.50;;
38238;SDS011;24035;48.900;9.188;2023-05-10T15:26:02;0.65;;;0.30;;
38238;SDS011;24035;48.900;9.188;2023-05-10T15:28:28;0.80;;;0.50;;
38238;SDS011;24035;48.900;9.188;2023-05-10T15:30:55;0.75;;;0.22;;
38238;SDS011;24035;48.900;9.188;2023-05-10T15:33:23;4.75;;;0.68;;